VTUK

Details ICAO VTUK (KKC)
Name Khon Kaen
Region Thailand
Timezone Asia/Bangkok (UTC+7.0)
Plans Departing 28
Arriving 41
Stats Elevation 670 ft / 204 m (AMSL)
Location 16.466628° 102.783663°
Runways 1
Magnetic Variation 0.807° W
Sunrise 2017-12-13 23:30:07 UTC / 2017-12-14 06:30:07 Local
Sunset 2017-12-14 10:39:30 UTC / 2017-12-14 17:39:30 Local
Advertisement - Login to hide

Runways

ID Width Length Bearing (true) Bearing (mag) Surface Threshold Offset Overrun Length
03 148 ft / 45 m 10,043 ft / 3,061 m 32.69° 33.50° Asphalt 492 ft / 150 m 0 ft / 0 m
21 148 ft / 45 m 10,043 ft / 3,061 m 212.70° 213.51° Asphalt 492 ft / 150 m 0 ft / 0 m

Map

Weather


0- 5 10 15 20 25 30 35+ Temperature / ° C

Clouds and Precipitation
Forecast for 2017-12-14 00:00 UTC. Updated an hour ago

Ground ~20,000 ft ~40,000 ft Winds

METAR

VTUK 132300Z 02003KT 5000 BR FEW035 22/22 Q1012 NOSIG

TAF

TAF VTUK 132300Z 1400/1424 04003KT 4000 BR FEW040 BECMG 1402/1404 06003KT 8000 NSW FEW035

Frequencies

Tower 122.25 MHz TWR
Approach 123.40 MHz APP
Warning: Do not use this data for real-world aviation or navigation. No guarantee of current accuracy is given.